sensor_id;sensor_type;location;lat;lon;timestamp;pressure;altitude;pressure_sealevel;temperature;humidity
6433;BME280;3249;42.690;23.260;2023-01-30T00:02:05;94582.53;;;-0.35;100.00
6433;BME280;3249;42.690;23.260;2023-01-30T00:04:34;94582.53;;;-0.35;100.00
6433;BME280;3249;42.690;23.260;2023-01-30T00:07:03;94572.06;;;-0.40;100.00
6433;BME280;3249;42.690;23.260;2023-01-30T00:09:36;94498.22;;;-0.78;100.00
6433;BME280;3249;42.690;23.260;2023-01-30T00:12:06;94566.06;;;-0.39;100.00
6433;BME280;3249;42.690;23.260;2023-01-30T00:14:38;94565.38;;;-0.31;100.00
6433;BME280;3249;42.690;23.260;2023-01-30T00:17:07;94566.22;;;-0.23;100.00
6433;BME280;3249;42.690;23.260;2023-01-30T00:19:36;94567.66;;;-0.20;100.00
6433;BME280;3249;42.690;23.260;2023-01-30T00:22:05;94570.19;;;-0.20;100.00
6433;BME280;3249;42.690;23.260;2023-01-30T00:24:34;94563.34;;;-0.28;100.00
6433;BME280;3249;42.690;23.260;2023-01-30T00:27:03;94567.69;;;-0.38;100.00
6433;BME280;3249;42.690;23.260;2023-01-30T00:29:32;94572.00;;;-0.48;100.00
6433;BME280;3249;42.690;23.260;2023-01-30T00:32:04;94563.69;;;-0.40;100.00
6433;BME280;3249;42.690;23.260;2023-01-30T00:34:33;94561.47;;;-0.26;100.00
6433;BME280;3249;42.690;23.260;2023-01-30T00:37:02;94565.22;;;-0.30;100.00
6433;BME280;3249;42.690;23.260;2023-01-30T00:39:31;94564.63;;;-0.41;100.00
6433;BME280;3249;42.690;23.260;2023-01-30T00:42:01;94554.03;;;-0.27;100.00
6433;BME280;3249;42.690;23.260;2023-01-30T00:44:42;94558.28;;;-0.28;100.00
6433;BME280;3249;42.690;23.260;2023-01-30T00:47:26;94556.25;;;-0.24;100.00
6433;BME280;3249;42.690;23.260;2023-01-30T00:49:55;94548.81;;;-0.26;100.00
6433;BME280;3249;42.690;23.260;2023-01-30T00:52:24;94544.53;;;-0.25;100.00
6433;BME280;3249;42.690;23.260;2023-01-30T00:54:53;94547.13;;;-0.35;100.00
6433;BME280;3249;42.690;23.260;2023-01-30T00:57:23;94544.34;;;-0.32;100.00
6433;BME280;3249;42.690;23.260;2023-01-30T00:59:52;94534.88;;;-0.30;100.00
6433;BME280;3249;42.690;23.260;2023-01-30T01:02:22;94540.44;;;-0.26;100.00
6433;BME280;3249;42.690;23.260;2023-01-30T01:04:55;94553.00;;;-0.34;100.00
6433;BME280;3249;42.690;23.260;2023-01-30T01:07:26;94547.00;;;-0.51;100.00
6433;BME280;3249;42.690;23.260;2023-01-30T01:09:55;94544.47;;;-0.51;100.00
6433;BME280;3249;42.690;23.260;2023-01-30T01:12:24;94544.91;;;-0.55;100.00
6433;BME280;3249;42.690;23.260;2023-01-30T01:14:53;94537.19;;;-0.54;100.00
6433;BME280;3249;42.690;23.260;2023-01-30T01:17:22;94508.84;;;-0.75;100.00
6433;BME280;3249;42.690;23.260;2023-01-30T01:19:51;94534.78;;;-0.55;100.00
6433;BME280;3249;42.690;23.260;2023-01-30T01:22:23;94522.28;;;-0.57;100.00
6433;BME280;3249;42.690;23.260;2023-01-30T01:24:53;94522.41;;;-0.76;100.00
6433;BME280;3249;42.690;23.260;2023-01-30T01:27:22;94512.47;;;-0.60;100.00
6433;BME280;3249;42.690;23.260;2023-01-30T01:29:54;94518.53;;;-0.53;100.00
6433;BME280;3249;42.690;23.260;2023-01-30T01:32:24;94517.81;;;-0.45;100.00
6433;BME280;3249;42.690;23.260;2023-01-30T01:34:53;94519.63;;;-0.55;100.00
6433;BME280;3249;42.690;23.260;2023-01-30T01:37:24;94509.53;;;-0.38;100.00
6433;BME280;3249;42.690;23.260;2023-01-30T01:39:54;94513.34;;;-0.34;100.00
6433;BME280;3249;42.690;23.260;2023-01-30T01:42:37;94516.31;;;-0.38;100.00
6433;BME280;3249;42.690;23.260;2023-01-30T01:45:23;94507.34;;;-0.50;100.00
6433;BME280;3249;42.690;23.260;2023-01-30T01:47:59;94513.97;;;-0.49;100.00
6433;BME280;3249;42.690;23.260;2023-01-30T01:50:39;94516.53;;;-0.32;100.00
6433;BME280;3249;42.690;23.260;2023-01-30T01:53:15;94519.03;;;-0.32;100.00
6433;BME280;3249;42.690;23.260;2023-01-30T01:55:49;94494.44;;;-0.47;100.00
6433;BME280;3249;42.690;23.260;2023-01-30T01:58:24;94515.22;;;-0.36;100.00
6433;BME280;3249;42.690;23.260;2023-01-30T02:00:57;94516.66;;;-0.33;100.00
6433;BME280;3249;42.690;23.260;2023-01-30T02:03:29;94519.41;;;-0.44;100.00
6433;BME280;3249;42.690;23.260;2023-01-30T02:06:02;94510.22;;;-0.63;100.00
6433;BME280;3249;42.690;23.260;2023-01-30T02:08:37;94519.50;;;-0.54;100.00
6433;BME280;3249;42.690;23.260;2023-01-30T02:11:11;94518.06;;;-0.66;100.00
6433;BME280;3249;42.690;23.260;2023-01-30T02:13:43;94515.06;;;-0.52;100.00
6433;BME280;3249;42.690;23.260;2023-01-30T02:16:13;94517.59;;;-0.52;100.00
6433;BME280;3249;42.690;23.260;2023-01-30T02:18:44;94514.72;;;-0.39;100.00
6433;BME280;3249;42.690;23.260;2023-01-30T02:27:38;94511.25;;;-0.38;100.00
6433;BME280;3249;42.690;23.260;2023-01-30T02:33:33;94518.06;;;-0.66;100.00
6433;BME280;3249;42.690;23.260;2023-01-30T02:36:14;94513.78;;;-0.56;100.00
6433;BME280;3249;42.690;23.260;2023-01-30T02:38:49;94515.88;;;-0.51;100.00
6433;BME280;3249;42.690;23.260;2023-01-30T02:41:25;94509.81;;;-0.41;100.00
6433;BME280;3249;42.690;23.260;2023-01-30T02:44:03;94461.50;;;-0.73;100.00
6433;BME280;3249;42.690;23.260;2023-01-30T02:46:37;94510.75;;;-0.42;100.00
6433;BME280;3249;42.690;23.260;2023-01-30T02:49:15;94427.84;;;-0.91;100.00
6433;BME280;3249;42.690;23.260;2023-01-30T02:51:48;94483.50;;;-0.65;100.00
6433;BME280;3249;42.690;23.260;2023-01-30T02:54:18;94496.13;;;-0.83;100.00
6433;BME280;3249;42.690;23.260;2023-01-30T02:56:50;94500.41;;;-0.83;100.00
6433;BME280;3249;42.690;23.260;2023-01-30T02:59:25;94507.59;;;-0.71;100.00
6433;BME280;3249;42.690;23.260;2023-01-30T03:02:15;94508.56;;;-0.72;100.00
6433;BME280;3249;42.690;23.260;2023-01-30T03:05:03;94511.44;;;-0.67;100.00
6433;BME280;3249;42.690;23.260;2023-01-30T03:07:43;94509.09;;;-0.78;100.00
6433;BME280;3249;42.690;23.260;2023-01-30T03:10:20;94510.91;;;-0.88;100.00
6433;BME280;3249;42.690;23.260;2023-01-30T03:13:00;94499.16;;;-0.97;100.00
6433;BME280;3249;42.690;23.260;2023-01-30T03:15:35;94500.44;;;-0.93;100.00
6433;BME280;3249;42.690;23.260;2023-01-30T03:18:07;94500.44;;;-0.93;100.00
6433;BME280;3249;42.690;23.260;2023-01-30T03:20:40;94500.31;;;-0.91;100.00
6433;BME280;3249;42.690;23.260;2023-01-30T03:23:09;94477.22;;;-1.06;100.00
6433;BME280;3249;42.690;23.260;2023-01-30T03:25:41;94478.78;;;-0.95;100.00
6433;BME280;3249;42.690;23.260;2023-01-30T03:28:14;94483.41;;;-0.91;100.00
6433;BME280;3249;42.690;23.260;2023-01-30T03:30:44;94477.25;;;-0.88;100.00
6433;BME280;3249;42.690;23.260;2023-01-30T03:33:16;94437.97;;;-1.18;100.00
6433;BME280;3249;42.690;23.260;2023-01-30T03:35:51;94478.00;;;-0.96;100.00
6433;BME280;3249;42.690;23.260;2023-01-30T03:38:20;94439.56;;;-1.17;100.00
6433;BME280;3249;42.690;23.260;2023-01-30T03:40:49;94469.81;;;-0.90;100.00
6433;BME280;3249;42.690;23.260;2023-01-30T03:43:18;94417.34;;;-1.13;100.00
6433;BME280;3249;42.690;23.260;2023-01-30T03:45:48;94471.47;;;-0.71;100.00
6433;BME280;3249;42.690;23.260;2023-01-30T03:48:16;94463.28;;;-0.83;100.00
6433;BME280;3249;42.690;23.260;2023-01-30T03:50:46;94465.53;;;-0.80;100.00
6433;BME280;3249;42.690;23.260;2023-01-30T03:53:18;94455.56;;;-0.81;100.00
6433;BME280;3249;42.690;23.260;2023-01-30T03:55:48;94462.56;;;-0.75;100.00
6433;BME280;3249;42.690;23.260;2023-01-30T03:58:23;94458.59;;;-0.78;100.00
6433;BME280;3249;42.690;23.260;2023-01-30T04:00:54;94462.78;;;-0.69;100.00
6433;BME280;3249;42.690;23.260;2023-01-30T04:03:25;94460.47;;;-0.80;100.00
6433;BME280;3249;42.690;23.260;2023-01-30T04:05:57;94453.09;;;-0.91;100.00
6433;BME280;3249;42.690;23.260;2023-01-30T04:08:29;94455.63;;;-0.91;100.00
6433;BME280;3249;42.690;23.260;2023-01-30T04:10:58;94458.16;;;-0.91;100.00
6433;BME280;3249;42.690;23.260;2023-01-30T04:13:27;94455.97;;;-0.86;100.00
6433;BME280;3249;42.690;23.260;2023-01-30T04:16:15;94449.34;;;-0.87;100.00
6433;BME280;3249;42.690;23.260;2023-01-30T04:19:03;94455.69;;;-0.83;100.00
6433;BME280;3249;42.690;23.260;2023-01-30T04:21:32;94456.72;;;-0.76;100.00
6433;BME280;3249;42.690;23.260;2023-01-30T04:24:05;94452.75;;;-0.78;100.00
6433;BME280;3249;42.690;23.260;2023-01-30T04:26:34;94454.91;;;-0.83;100.00
6433;BME280;3249;42.690;23.260;2023-01-30T04:29:05;94465.09;;;-0.93;100.00
6433;BME280;3249;42.690;23.260;2023-01-30T04:31:36;94447.19;;;-0.99;100.00
6433;BME280;3249;42.690;23.260;2023-01-30T04:34:15;94455.34;;;-0.88;100.00
6433;BME280;3249;42.690;23.260;2023-01-30T04:36:44;94448.13;;;-0.83;100.00
6433;BME280;3249;42.690;23.260;2023-01-30T04:39:16;94388.84;;;-1.23;100.00
6433;BME280;3249;42.690;23.260;2023-01-30T04:41:45;94445.78;;;-0.94;100.00
6433;BME280;3249;42.690;23.260;2023-01-30T04:44:14;94445.66;;;-0.92;100.00
6433;BME280;3249;42.690;23.260;2023-01-30T04:47:09;94422.31;;;-1.21;100.00
6433;BME280;3249;42.690;23.260;2023-01-30T04:49:39;94448.47;;;-1.13;100.00
6433;BME280;3249;42.690;23.260;2023-01-30T04:52:11;94432.31;;;-1.02;100.00
6433;BME280;3249;42.690;23.260;2023-01-30T04:54:42;94436.41;;;-1.01;100.00
6433;BME280;3249;42.690;23.260;2023-01-30T04:57:11;94392.53;;;-1.18;100.00
6433;BME280;3249;42.690;23.260;2023-01-30T04:59:40;94432.88;;;-0.91;100.00
6433;BME280;3249;42.690;23.260;2023-01-30T05:02:12;94424.09;;;-0.87;100.00
6433;BME280;3249;42.690;23.260;2023-01-30T05:04:41;94425.38;;;-0.83;100.00
6433;BME280;3249;42.690;23.260;2023-01-30T05:07:10;94419.09;;;-0.79;100.00
6433;BME280;3249;42.690;23.260;2023-01-30T05:09:42;94426.03;;;-0.81;100.00
6433;BME280;3249;42.690;23.260;2023-01-30T05:12:11;94423.59;;;-0.73;100.00
6433;BME280;3249;42.690;23.260;2023-01-30T05:14:40;94425.44;;;-0.75;100.00
6433;BME280;3249;42.690;23.260;2023-01-30T05:17:11;94418.81;;;-0.76;100.00
6433;BME280;3249;42.690;23.260;2023-01-30T05:19:40;94424.09;;;-0.69;100.00
6433;BME280;3249;42.690;23.260;2023-01-30T05:22:09;94431.25;;;-0.65;100.00
6433;BME280;3249;42.690;23.260;2023-01-30T05:24:37;94441.06;;;-0.62;100.00
6433;BME280;3249;42.690;23.260;2023-01-30T05:27:09;94441.41;;;-0.57;100.00
6433;BME280;3249;42.690;23.260;2023-01-30T05:29:38;94401.56;;;-0.98;100.00
6433;BME280;3249;42.690;23.260;2023-01-30T05:32:10;94443.81;;;-0.55;100.00
6433;BME280;3249;42.690;23.260;2023-01-30T05:34:40;94432.88;;;-0.56;100.00
6433;BME280;3249;42.690;23.260;2023-01-30T05:37:09;94439.47;;;-0.63;100.00
6433;BME280;3249;42.690;23.260;2023-01-30T05:39:39;94435.63;;;-0.67;100.00
6433;BME280;3249;42.690;23.260;2023-01-30T05:42:10;94437.81;;;-0.72;100.00
6433;BME280;3249;42.690;23.260;2023-01-30T05:44:39;94437.75;;;-0.62;100.00
6433;BME280;3249;42.690;23.260;2023-01-30T05:47:08;94441.34;;;-0.65;100.00
6433;BME280;3249;42.690;23.260;2023-01-30T05:49:37;94438.63;;;-0.71;100.00
6433;BME280;3249;42.690;23.260;2023-01-30T05:52:06;94442.13;;;-0.82;100.00
6433;BME280;3249;42.690;23.260;2023-01-30T05:54:35;94440.53;;;-0.83;100.00
6433;BME280;3249;42.690;23.260;2023-01-30T05:57:04;94447.16;;;-0.82;100.00
6433;BME280;3249;42.690;23.260;2023-01-30T05:59:35;94445.59;;;-0.83;100.00
6433;BME280;3249;42.690;23.260;2023-01-30T06:02:04;94443.66;;;-0.71;100.00
6433;BME280;3249;42.690;23.260;2023-01-30T06:04:33;94449.22;;;-0.68;100.00
6433;BME280;3249;42.690;23.260;2023-01-30T06:07:03;94440.19;;;-0.70;100.00
6433;BME280;3249;42.690;23.260;2023-01-30T06:09:32;94452.31;;;-0.56;100.00
6433;BME280;3249;42.690;23.260;2023-01-30T06:12:01;94452.81;;;-0.53;100.00
6433;BME280;3249;42.690;23.260;2023-01-30T06:14:30;94445.59;;;-0.48;100.00
6433;BME280;3249;42.690;23.260;2023-01-30T06:17:01;94442.44;;;-0.50;100.00
6433;BME280;3249;42.690;23.260;2023-01-30T06:19:30;94445.03;;;-0.59;100.00
6433;BME280;3249;42.690;23.260;2023-01-30T06:21:59;94439.25;;;-0.52;100.00
6433;BME280;3249;42.690;23.260;2023-01-30T06:24:28;94436.94;;;-0.80;100.00
6433;BME280;3249;42.690;23.260;2023-01-30T06:26:58;94434.41;;;-0.63;100.00
6433;BME280;3249;42.690;23.260;2023-01-30T06:29:26;94442.78;;;-0.62;100.00
6433;BME280;3249;42.690;23.260;2023-01-30T06:31:55;94440.25;;;-0.62;100.00
6433;BME280;3249;42.690;23.260;2023-01-30T06:34:27;94438.38;;;-0.60;100.00
6433;BME280;3249;42.690;23.260;2023-01-30T06:36:56;94436.44;;;-0.66;100.00
6433;BME280;3249;42.690;23.260;2023-01-30T06:39:25;94425.31;;;-0.73;100.00
6433;BME280;3249;42.690;23.260;2023-01-30T06:41:54;94442.72;;;-0.53;100.00
6433;BME280;3249;42.690;23.260;2023-01-30T06:44:23;94433.63;;;-0.46;100.00
6433;BME280;3249;42.690;23.260;2023-01-30T06:46:52;94449.13;;;-0.41;100.00
6433;BME280;3249;42.690;23.260;2023-01-30T06:49:21;94443.41;;;-0.43;100.00
6433;BME280;3249;42.690;23.260;2023-01-30T06:51:52;94407.63;;;-0.73;100.00
6433;BME280;3249;42.690;23.260;2023-01-30T06:54:21;94449.41;;;-0.44;100.00
6433;BME280;3249;42.690;23.260;2023-01-30T06:56:50;94438.91;;;-0.57;100.00
6433;BME280;3249;42.690;23.260;2023-01-30T06:59:19;94450.09;;;-0.59;100.00
6433;BME280;3249;42.690;23.260;2023-01-30T07:01:48;94452.81;;;-0.53;100.00
6433;BME280;3249;42.690;23.260;2023-01-30T07:04:17;94455.34;;;-0.70;100.00
6433;BME280;3249;42.690;23.260;2023-01-30T07:06:46;94452.81;;;-0.70;100.00
6433;BME280;3249;42.690;23.260;2023-01-30T07:09:17;94451.75;;;-0.68;100.00
6433;BME280;3249;42.690;23.260;2023-01-30T07:11:46;94458.50;;;-0.68;100.00
6433;BME280;3249;42.690;23.260;2023-01-30T07:14:16;94459.66;;;-0.63;100.00
6433;BME280;3249;42.690;23.260;2023-01-30T07:16:45;94461.78;;;-0.76;100.00
6433;BME280;3249;42.690;23.260;2023-01-30T07:19:14;94457.28;;;-0.82;100.00
6433;BME280;3249;42.690;23.260;2023-01-30T07:21:43;94436.84;;;-0.88;100.00
6433;BME280;3249;42.690;23.260;2023-01-30T07:24:12;94462.47;;;-0.66;100.00
6433;BME280;3249;42.690;23.260;2023-01-30T07:26:46;94459.97;;;-0.66;100.00
6433;BME280;3249;42.690;23.260;2023-01-30T07:29:15;94457.66;;;-0.59;100.00
6433;BME280;3249;42.690;23.260;2023-01-30T07:31:44;94463.56;;;-0.51;100.00
6433;BME280;3249;42.690;23.260;2023-01-30T07:34:13;94464.72;;;-0.45;100.00
6433;BME280;3249;42.690;23.260;2023-01-30T07:36:42;94472.25;;;-0.36;100.00
6433;BME280;3249;42.690;23.260;2023-01-30T07:39:11;94484.19;;;-0.46;100.00
6433;BME280;3249;42.690;23.260;2023-01-30T07:41:43;94484.19;;;-0.46;100.00
6433;BME280;3249;42.690;23.260;2023-01-30T07:44:12;94479.75;;;-0.44;100.00
6433;BME280;3249;42.690;23.260;2023-01-30T07:46:41;94476.59;;;-0.46;100.00
6433;BME280;3249;42.690;23.260;2023-01-30T07:49:10;94473.06;;;-0.53;100.00
6433;BME280;3249;42.690;23.260;2023-01-30T07:51:39;94479.19;;;-0.55;100.00
6433;BME280;3249;42.690;23.260;2023-01-30T07:54:08;94454.63;;;-0.63;100.00
6433;BME280;3249;42.690;23.260;2023-01-30T07:56:38;94478.31;;;-0.46;100.00
6433;BME280;3249;42.690;23.260;2023-01-30T07:59:09;94467.47;;;-0.39;100.00
6433;BME280;3249;42.690;23.260;2023-01-30T08:01:39;94430.00;;;-0.43;100.00
6433;BME280;3249;42.690;23.260;2023-01-30T08:04:07;94452.13;;;-0.20;100.00
6433;BME280;3249;42.690;23.260;2023-01-30T08:06:36;94453.09;;;-0.21;100.00
6433;BME280;3249;42.690;23.260;2023-01-30T08:09:06;94447.16;;;-0.29;100.00
6433;BME280;3249;42.690;23.260;2023-01-30T08:11:35;94446.13;;;-0.19;100.00
6433;BME280;3249;42.690;23.260;2023-01-30T08:14:04;94444.53;;;-0.20;100.00
6433;BME280;3249;42.690;23.260;2023-01-30T08:16:36;94445.16;;;-0.26;100.00
6433;BME280;3249;42.690;23.260;2023-01-30T08:19:06;94447.38;;;-0.23;100.00
6433;BME280;3249;42.690;23.260;2023-01-30T08:21:35;94440.66;;;-0.32;100.00
6433;BME280;3249;42.690;23.260;2023-01-30T08:24:05;94441.06;;;-0.19;100.00
6433;BME280;3249;42.690;23.260;2023-01-30T08:26:34;94440.16;;;-0.18;100.00
6433;BME280;3249;42.690;23.260;2023-01-30T08:29:03;94451.84;;;-0.17;100.00
6433;BME280;3249;42.690;23.260;2023-01-30T08:31:35;94436.63;;;-0.25;100.00
6433;BME280;3249;42.690;23.260;2023-01-30T08:34:04;94432.56;;;-0.18;100.00
6433;BME280;3249;42.690;23.260;2023-01-30T08:36:33;94428.47;;;-0.11;100.00
6433;BME280;3249;42.690;23.260;2023-01-30T08:39:02;94426.84;;;-0.20;100.00
6433;BME280;3249;42.690;23.260;2023-01-30T08:41:34;94432.50;;;-0.26;100.00
6433;BME280;3249;42.690;23.260;2023-01-30T08:44:04;94422.81;;;-0.30;100.00
6433;BME280;3249;42.690;23.260;2023-01-30T08:46:36;94424.13;;;-0.26;100.00
6433;BME280;3249;42.690;23.260;2023-01-30T08:49:05;94404.72;;;-0.43;100.00
6433;BME280;3249;42.690;23.260;2023-01-30T08:51:35;94420.16;;;-0.29;100.00
6433;BME280;3249;42.690;23.260;2023-01-30T08:54:04;94408.16;;;-0.44;100.00
6433;BME280;3249;42.690;23.260;2023-01-30T08:56:34;94421.09;;;-0.30;100.00
6433;BME280;3249;42.690;23.260;2023-01-30T08:59:04;94413.34;;;-0.28;100.00
6433;BME280;3249;42.690;23.260;2023-01-30T09:01:36;94411.81;;;-0.21;100.00
6433;BME280;3249;42.690;23.260;2023-01-30T09:04:05;94412.34;;;-0.18;100.00
6433;BME280;3249;42.690;23.260;2023-01-30T09:06:34;94411.81;;;-0.21;100.00
6433;BME280;3249;42.690;23.260;2023-01-30T09:09:07;94410.03;;;-0.29;100.00
6433;BME280;3249;42.690;23.260;2023-01-30T09:11:36;94402.34;;;-0.19;100.00
6433;BME280;3249;42.690;23.260;2023-01-30T09:14:06;94395.69;;;-0.20;100.00
6433;BME280;3249;42.690;23.260;2023-01-30T09:16:38;94407.38;;;-0.02;100.00
6433;BME280;3249;42.690;23.260;2023-01-30T09:19:07;94407.75;;;0.12;100.00
6433;BME280;3249;42.690;23.260;2023-01-30T09:21:36;94399.84;;;0.07;100.00
6433;BME280;3249;42.690;23.260;2023-01-30T09:24:07;94394.56;;;0.00;100.00
6433;BME280;3249;42.690;23.260;2023-01-30T09:26:35;94396.63;;;0.04;100.00
6433;BME280;3249;42.690;23.260;2023-01-30T09:29:09;94369.53;;;-0.37;100.00
6433;BME280;3249;42.690;23.260;2023-01-30T09:31:41;94398.13;;;-0.11;100.00
6433;BME280;3249;42.690;23.260;2023-01-30T09:34:10;94398.91;;;0.16;100.00
6433;BME280;3249;42.690;23.260;2023-01-30T09:36:39;94399.91;;;0.23;100.00
6433;BME280;3249;42.690;23.260;2023-01-30T09:39:09;94402.47;;;0.31;100.00
6433;BME280;3249;42.690;23.260;2023-01-30T09:41:56;94378.53;;;0.17;100.00
6433;BME280;3249;42.690;23.260;2023-01-30T09:44:53;94386.41;;;0.48;100.00
6433;BME280;3249;42.690;23.260;2023-01-30T09:47:35;94384.47;;;0.42;100.00
6433;BME280;3249;42.690;23.260;2023-01-30T09:50:22;94383.06;;;0.47;100.00
6433;BME280;3249;42.690;23.260;2023-01-30T09:52:58;94378.81;;;0.48;100.00
6433;BME280;3249;42.690;23.260;2023-01-30T09:55:32;94376.25;;;0.40;100.00
6433;BME280;3249;42.690;23.260;2023-01-30T09:58:05;94384.97;;;0.45;100.00
6433;BME280;3249;42.690;23.260;2023-01-30T10:00:41;94373.91;;;0.46;100.00
6433;BME280;3249;42.690;23.260;2023-01-30T10:03:16;94361.91;;;0.15;100.00
6433;BME280;3249;42.690;23.260;2023-01-30T10:05:48;94362.81;;;0.05;100.00
6433;BME280;3249;42.690;23.260;2023-01-30T10:08:49;94354.00;;;0.17;100.00
6433;BME280;3249;42.690;23.260;2023-01-30T10:11:30;94350.16;;;0.05;100.00
6433;BME280;3249;42.690;23.260;2023-01-30T10:14:16;94343.47;;;-0.04;100.00
6433;BME280;3249;42.690;23.260;2023-01-30T10:16:53;94331.59;;;-0.11;100.00
6433;BME280;3249;42.690;23.260;2023-01-30T10:19:47;94332.50;;;-0.12;100.00
6433;BME280;3249;42.690;23.260;2023-01-30T10:22:28;94337.13;;;-0.08;100.00
6433;BME280;3249;42.690;23.260;2023-01-30T10:25:12;94336.69;;;-0.03;100.00
6433;BME280;3249;42.690;23.260;2023-01-30T10:27:48;94317.19;;;-0.11;100.00
6433;BME280;3249;42.690;23.260;2023-01-30T10:30:18;94324.13;;;0.13;100.00
6433;BME280;3249;42.690;23.260;2023-01-30T10:32:51;94296.72;;;0.08;100.00
6433;BME280;3249;42.690;23.260;2023-01-30T10:35:29;94323.81;;;0.16;100.00
6433;BME280;3249;42.690;23.260;2023-01-30T10:38:05;94305.28;;;0.08;100.00
6433;BME280;3249;42.690;23.260;2023-01-30T10:40:38;94301.13;;;-0.02;100.00
6433;BME280;3249;42.690;23.260;2023-01-30T10:43:14;94291.53;;;-0.24;100.00
6433;BME280;3249;42.690;23.260;2023-01-30T10:46:14;94276.66;;;-0.27;100.00
6433;BME280;3249;42.690;23.260;2023-01-30T10:49:05;94279.66;;;0.03;100.00
6433;BME280;3249;42.690;23.260;2023-01-30T10:52:23;94249.88;;;-0.04;100.00
6433;BME280;3249;42.690;23.260;2023-01-30T10:54:52;94272.41;;;0.16;100.00
6433;BME280;3249;42.690;23.260;2023-01-30T10:57:48;94177.53;;;-0.38;100.00
6433;BME280;3249;42.690;23.260;2023-01-30T11:00:34;94236.69;;;0.27;100.00
6433;BME280;3249;42.690;23.260;2023-01-30T11:03:23;94242.41;;;0.45;100.00
6433;BME280;3249;42.690;23.260;2023-01-30T11:06:03;94251.28;;;0.65;100.00
6433;BME280;3249;42.690;23.260;2023-01-30T11:08:40;94244.81;;;0.62;100.00
6433;BME280;3249;42.690;23.260;2023-01-30T11:11:29;94164.72;;;0.21;100.00
6433;BME280;3249;42.690;23.260;2023-01-30T11:14:16;94225.16;;;0.32;100.00
6433;BME280;3249;42.690;23.260;2023-01-30T11:16:47;94228.78;;;0.46;100.00
6433;BME280;3249;42.690;23.260;2023-01-30T11:19:31;94192.00;;;-0.07;100.00
6433;BME280;3249;42.690;23.260;2023-01-30T11:22:04;94209.47;;;0.29;100.00
6433;BME280;3249;42.690;23.260;2023-01-30T11:24:41;94167.59;;;-0.32;100.00
6433;BME280;3249;42.690;23.260;2023-01-30T11:27:17;94192.03;;;0.09;100.00
6433;BME280;3249;42.690;23.260;2023-01-30T11:30:03;94168.66;;;0.08;100.00
6433;BME280;3249;42.690;23.260;2023-01-30T11:32:33;94192.34;;;-0.02;100.00
6433;BME280;3249;42.690;23.260;2023-01-30T11:35:15;94184.81;;;0.15;100.00
6433;BME280;3249;42.690;23.260;2023-01-30T11:37:47;94192.72;;;0.36;100.00
6433;BME280;3249;42.690;23.260;2023-01-30T11:40:28;94180.63;;;-0.03;100.00
6433;BME280;3249;42.690;23.260;2023-01-30T11:43:01;94179.91;;;0.29;100.00
6433;BME280;3249;42.690;23.260;2023-01-30T11:45:35;94172.34;;;0.61;100.00
6433;BME280;3249;42.690;23.260;2023-01-30T11:48:13;94167.72;;;0.73;100.00
6433;BME280;3249;42.690;23.260;2023-01-30T11:50:49;94163.47;;;0.73;100.00
6433;BME280;3249;42.690;23.260;2023-01-30T11:53:28;94148.25;;;0.81;100.00
6433;BME280;3249;42.690;23.260;2023-01-30T11:56:07;94156.78;;;0.96;100.00
6433;BME280;3249;42.690;23.260;2023-01-30T11:58:38;94151.88;;;0.87;100.00
6433;BME280;3249;42.690;23.260;2023-01-30T12:01:11;94144.91;;;0.81;100.00
6433;BME280;3249;42.690;23.260;2023-01-30T12:03:47;94141.91;;;0.93;100.00
6433;BME280;3249;42.690;23.260;2023-01-30T12:06:30;94125.59;;;0.88;100.00
6433;BME280;3249;42.690;23.260;2023-01-30T12:09:00;94129.81;;;1.11;100.00
6433;BME280;3249;42.690;23.260;2023-01-30T12:11:41;94122.97;;;1.28;100.00
6433;BME280;3249;42.690;23.260;2023-01-30T12:14:20;94124.31;;;0.92;100.00
6433;BME280;3249;42.690;23.260;2023-01-30T12:16:59;94109.41;;;0.97;100.00
6433;BME280;3249;42.690;23.260;2023-01-30T12:19:44;94102.56;;;1.13;100.00
6433;BME280;3249;42.690;23.260;2023-01-30T12:22:21;94104.59;;;1.26;100.00
6433;BME280;3249;42.690;23.260;2023-01-30T12:24:57;94107.72;;;1.36;97.45
6433;BME280;3249;42.690;23.260;2023-01-30T12:27:44;94109.16;;;1.30;100.00
6433;BME280;3249;42.690;23.260;2023-01-30T12:30:23;94083.97;;;1.29;96.88
6433;BME280;3249;42.690;23.260;2023-01-30T12:32:58;94099.88;;;1.15;88.63
6433;BME280;3249;42.690;23.260;2023-01-30T12:35:40;94090.78;;;0.90;87.40
6433;BME280;3249;42.690;23.260;2023-01-30T12:38:23;94079.09;;;0.73;89.50
6433;BME280;3249;42.690;23.260;2023-01-30T12:41:04;94082.75;;;0.62;91.61
6433;BME280;3249;42.690;23.260;2023-01-30T12:43:56;94084.94;;;0.73;95.51
6433;BME280;3249;42.690;23.260;2023-01-30T12:46:47;94074.31;;;0.86;96.44
6433;BME280;3249;42.690;23.260;2023-01-30T12:49:46;94084.25;;;0.95;92.00
6433;BME280;3249;42.690;23.260;2023-01-30T12:52:36;94069.22;;;1.02;92.13
6433;BME280;3249;42.690;23.260;2023-01-30T12:55:21;94072.66;;;1.01;89.43
6433;BME280;3249;42.690;23.260;2023-01-30T12:57:53;94061.47;;;0.87;87.98
6433;BME280;3249;42.690;23.260;2023-01-30T13:00:33;94067.50;;;0.86;86.25
6433;BME280;3249;42.690;23.260;2023-01-30T13:03:21;94075.78;;;0.64;84.36
6433;BME280;3249;42.690;23.260;2023-01-30T13:05:59;94030.09;;;0.42;88.26
6433;BME280;3249;42.690;23.260;2023-01-30T13:08:38;94066.41;;;0.81;90.75
6433;BME280;3249;42.690;23.260;2023-01-30T13:11:20;94059.19;;;0.46;100.00
6433;BME280;3249;42.690;23.260;2023-01-30T13:14:00;94058.84;;;0.57;100.00
6433;BME280;3249;42.690;23.260;2023-01-30T13:16:49;94054.09;;;0.62;100.00
6433;BME280;3249;42.690;23.260;2023-01-30T13:19:22;94052.13;;;0.88;100.00
6433;BME280;3249;42.690;23.260;2023-01-30T13:22:00;94043.31;;;0.76;100.00
6433;BME280;3249;42.690;23.260;2023-01-30T13:24:42;94037.28;;;0.77;100.00
6433;BME280;3249;42.690;23.260;2023-01-30T13:27:18;94041.50;;;1.00;100.00
6433;BME280;3249;42.690;23.260;2023-01-30T13:29:50;94043.38;;;0.98;100.00
6433;BME280;3249;42.690;23.260;2023-01-30T13:32:29;94039.25;;;1.05;100.00
6433;BME280;3249;42.690;23.260;2023-01-30T13:35:04;94012.50;;;1.03;100.00
6433;BME280;3249;42.690;23.260;2023-01-30T13:37:36;94027.47;;;1.20;100.00
6433;BME280;3249;42.690;23.260;2023-01-30T13:40:14;94004.91;;;1.03;100.00
6433;BME280;3249;42.690;23.260;2023-01-30T13:42:49;93997.34;;;0.95;100.00
6433;BME280;3249;42.690;23.260;2023-01-30T13:45:21;94019.66;;;0.91;100.00
6433;BME280;3249;42.690;23.260;2023-01-30T13:48:03;94017.16;;;0.83;100.00